createdAt,value
2023-04-16T00:02:31.397Z,99574.23
2023-04-16T00:05:34.398Z,99571.35
2023-04-16T00:08:37.542Z,99572.45
2023-04-16T00:11:40.246Z,99575.32
2023-04-16T00:14:43.882Z,99575.73
2023-04-16T00:17:46.591Z,99578.40
2023-04-16T00:21:31.210Z,99580.26
2023-04-16T00:24:33.829Z,99589.05
2023-04-16T00:27:36.629Z,99583.91
2023-04-16T00:30:45.411Z,99583.77
2023-04-16T00:33:48.096Z,99584.21
2023-04-16T00:36:50.760Z,99581.45
2023-04-16T00:39:53.402Z,99585.77
2023-04-16T00:42:56.087Z,99586.70
2023-04-16T00:46:18.508Z,99588.37
2023-04-16T00:49:21.300Z,99589.08
2023-04-16T00:52:24.586Z,99585.52
2023-04-16T00:55:27.597Z,99587.02
2023-04-16T00:58:30.586Z,99588.27
2023-04-16T01:01:33.271Z,99588.17
2023-04-16T01:04:40.839Z,99588.58
2023-04-16T01:07:43.523Z,99587.17
2023-04-16T01:10:46.698Z,99588.73
2023-04-16T01:13:49.335Z,99588.02
2023-04-16T01:16:51.895Z,99587.80
2023-04-16T01:23:40.594Z,99584.70
2023-04-16T01:26:43.186Z,99584.85
2023-04-16T01:29:59.353Z,99587.52
2023-04-16T01:33:02.087Z,99587.20
2023-04-16T01:36:13.381Z,99587.45
2023-04-16T01:39:16.647Z,99589.15
2023-04-16T01:42:26.411Z,99588.04
2023-04-16T01:45:29.070Z,99591.87
2023-04-16T01:48:31.639Z,99588.13
2023-04-16T01:51:34.260Z,99587.19
2023-04-16T01:54:36.833Z,99590.90
2023-04-16T01:57:39.670Z,99590.08
2023-04-16T02:00:42.262Z,99593.48
2023-04-16T02:03:45.287Z,99592.64
2023-04-16T02:06:48.215Z,99588.37
2023-04-16T02:09:53.910Z,99589.71
2023-04-16T02:13:10.432Z,99587.96
2023-04-16T02:16:13.101Z,99587.79
2023-04-16T02:19:16.270Z,99587.94
2023-04-16T02:22:18.892Z,99587.90
2023-04-16T02:25:22.420Z,99581.59
2023-04-16T02:28:25.020Z,99584.28
2023-04-16T02:31:28.816Z,99587.73
2023-04-16T02:34:31.558Z,99586.42
2023-04-16T02:37:34.344Z,99586.86
2023-04-16T02:40:37.337Z,99577.75
2023-04-16T02:43:40.010Z,99582.31
2023-04-16T02:46:42.637Z,99586.49
2023-04-16T02:49:45.359Z,99590.81
2023-04-16T02:52:48.659Z,99593.96
2023-04-16T02:55:55.355Z,99594.54
2023-04-16T02:58:57.998Z,99598.33
2023-04-16T03:02:00.760Z,99601.04
2023-04-16T03:05:04.125Z,99600.14
2023-04-16T03:08:07.215Z,99607.44
2023-04-16T03:11:09.761Z,99608.89
2023-04-16T03:14:12.381Z,99610.56
2023-04-16T03:17:14.989Z,99615.17
2023-04-16T03:20:33.629Z,99618.75
2023-04-16T03:23:36.540Z,99618.52
2023-04-16T03:26:39.221Z,99623.68
2023-04-16T03:29:41.856Z,99627.98
2023-04-16T03:32:44.452Z,99631.05
2023-04-16T03:35:57.334Z,99632.40
2023-04-16T03:38:59.924Z,99636.16
2023-04-16T03:42:03.482Z,99637.40
2023-04-16T03:45:11.873Z,99640.08
2023-04-16T03:48:14.496Z,99638.11
2023-04-16T03:51:17.145Z,99643.09
2023-04-16T03:54:22.066Z,99639.20
2023-04-16T03:57:25.458Z,99643.67
2023-04-16T04:00:28.003Z,99645.67
2023-04-16T04:03:31.194Z,99643.73
2023-04-16T04:06:33.897Z,99649.61
2023-04-16T04:09:36.548Z,99650.89
2023-04-16T04:12:39.159Z,99651.63
2023-04-16T04:15:41.762Z,99657.05
2023-04-16T04:18:44.634Z,99657.34
2023-04-16T04:21:54.546Z,99659.24
2023-04-16T04:24:57.142Z,99660.91
2023-04-16T04:27:59.785Z,99667.24
2023-04-16T04:31:02.386Z,99671.56
2023-04-16T04:34:05.031Z,99678.13
2023-04-16T04:37:07.768Z,99684.96
2023-04-16T04:40:10.995Z,99686.86
2023-04-16T04:43:13.664Z,99691.21
2023-04-16T04:46:16.297Z,99690.70
2023-04-16T04:49:18.866Z,99693.14
2023-04-16T04:52:21.443Z,99694.01
2023-04-16T04:55:24.296Z,99696.48
2023-04-16T04:58:28.646Z,99703.64
2023-04-16T05:01:31.653Z,99707.29
2023-04-16T05:04:34.277Z,99712.59
2023-04-16T05:07:36.972Z,99713.58
2023-04-16T05:10:39.527Z,99714.10
2023-04-16T05:13:54.496Z,99716.09
2023-04-16T05:16:57.222Z,99718.16
2023-04-16T05:20:00.744Z,99725.17
2023-04-16T05:23:32.139Z,99725.80
2023-04-16T05:26:34.771Z,99728.71
2023-04-16T05:29:42.104Z,99732.64
2023-04-16T05:32:44.905Z,99733.09
2023-04-16T05:35:47.489Z,99733.07
2023-04-16T05:38:50.115Z,99736.58
2023-04-16T05:41:53.169Z,99734.18
2023-04-16T05:44:55.901Z,99740.80
2023-04-16T05:47:58.524Z,99746.03
2023-04-16T05:51:02.808Z,99745.39
2023-04-16T05:54:05.387Z,99750.40
2023-04-16T05:57:08.069Z,99751.25
2023-04-16T06:00:11.040Z,99753.27
2023-04-16T06:03:13.995Z,99752.77
2023-04-16T06:06:16.675Z,99756.45
2023-04-16T06:09:19.256Z,99760.58
2023-04-16T06:12:21.831Z,99764.70
2023-04-16T06:15:24.401Z,99765.06
2023-04-16T06:18:27.003Z,99768.89
2023-04-16T06:21:29.827Z,99773.08
2023-04-16T06:24:32.490Z,99775.00
2023-04-16T06:27:35.078Z,99777.77
2023-04-16T06:30:37.701Z,99781.14
2023-04-16T06:33:40.720Z,99777.71
2023-04-16T06:36:43.371Z,99779.20
2023-04-16T06:39:51.207Z,99781.11
2023-04-16T06:42:54.038Z,99786.86
2023-04-16T06:45:56.685Z,99788.25
2023-04-16T06:48:59.393Z,99791.96
2023-04-16T06:52:03.786Z,99786.55
2023-04-16T06:55:09.856Z,99786.34
2023-04-16T06:58:12.616Z,99789.25
2023-04-16T07:01:15.356Z,99790.19
2023-04-16T07:04:18.069Z,99794.66
2023-04-16T07:07:21.038Z,99794.17
2023-04-16T07:10:23.801Z,99798.77
2023-04-16T07:13:26.549Z,99801.44
2023-04-16T07:16:29.277Z,99806.39
2023-04-16T07:19:32.887Z,99802.94
2023-04-16T07:22:35.968Z,99806.59
2023-04-16T07:25:38.608Z,99809.07
2023-04-16T07:28:41.411Z,99810.77
2023-04-16T07:31:45.436Z,99813.73
2023-04-16T07:34:48.254Z,99818.59
2023-04-16T07:37:50.948Z,99820.22
2023-04-16T07:40:53.716Z,99823.64
2023-04-16T07:43:56.633Z,99825.69
2023-04-16T07:46:59.379Z,99825.65
2023-04-16T07:50:02.098Z,99829.89
2023-04-16T07:53:07.603Z,99833.38
2023-04-16T07:56:10.476Z,99834.57
2023-04-16T07:59:21.872Z,99838.17
2023-04-16T08:02:26.576Z,99836.20
2023-04-16T08:05:29.450Z,99840.02
2023-04-16T08:08:32.213Z,99842.98
2023-04-16T08:11:35.243Z,99841.81
2023-04-16T08:14:37.878Z,99845.80
2023-04-16T08:17:44.749Z,99847.97
2023-04-16T08:20:48.097Z,99846.48
2023-04-16T08:23:51.803Z,99851.77
2023-04-16T08:27:17.895Z,99849.38
2023-04-16T08:30:22.445Z,99853.34
2023-04-16T08:33:25.945Z,99861.54
2023-04-16T08:36:43.610Z,99861.42
2023-04-16T08:40:00.014Z,99865.90
2023-04-16T08:43:10.319Z,99872.39
2023-04-16T08:46:13.696Z,99876.81
2023-04-16T08:49:20.563Z,99878.84
2023-04-16T08:52:23.970Z,99880.34
2023-04-16T08:55:35.984Z,99879.77
2023-04-16T08:58:42.822Z,99882.30
2023-04-16T09:01:46.713Z,99879.77
2023-04-16T09:04:51.820Z,99877.63
2023-04-16T09:07:54.872Z,99869.42
2023-04-16T09:10:57.861Z,99885.79
2023-04-16T09:14:01.105Z,99889.52
2023-04-16T09:17:06.553Z,99889.48
2023-04-16T09:20:11.080Z,99889.78
2023-04-16T09:23:13.855Z,99892.65
2023-04-16T09:26:16.904Z,99894.55
2023-04-16T09:29:39.570Z,99894.20
2023-04-16T09:32:42.322Z,99899.00
2023-04-16T09:35:52.750Z,99896.85
2023-04-16T09:38:57.520Z,99900.19
2023-04-16T09:42:00.982Z,99904.60
2023-04-16T09:45:06.053Z,99904.53
2023-04-16T09:48:09.034Z,99902.27
2023-04-16T09:51:11.724Z,99909.15
2023-04-16T09:54:14.517Z,99910.89
2023-04-16T09:57:24.960Z,99916.37
2023-04-16T10:00:29.694Z,99917.30
2023-04-16T10:03:34.825Z,99920.27
2023-04-16T10:06:37.849Z,99917.95
2023-04-16T10:09:40.922Z,99924.05
2023-04-16T10:12:43.847Z,99930.20
2023-04-16T10:15:46.770Z,99933.38
2023-04-16T10:18:49.560Z,99934.38
2023-04-16T10:21:52.658Z,99937.29
2023-04-16T10:24:56.175Z,99935.98
2023-04-16T10:27:59.584Z,99938.13
2023-04-16T10:31:05.666Z,99941.31
2023-04-16T10:34:10.135Z,99941.05
2023-04-16T10:37:13.113Z,99937.03
2023-04-16T10:40:29.211Z,99941.77
2023-04-16T10:43:39.124Z,99947.05
2023-04-16T10:46:54.980Z,99943.70
2023-04-16T10:49:58.342Z,99948.02
2023-04-16T10:53:22.733Z,99941.85
2023-04-16T10:56:27.758Z,99948.42
2023-04-16T10:59:32.306Z,99948.67
2023-04-16T11:02:35.268Z,99953.64
2023-04-16T11:05:47.143Z,99954.14
2023-04-16T11:08:55.004Z,99955.73
2023-04-16T11:12:12.868Z,99960.08
2023-04-16T11:15:17.202Z,99964.34
2023-04-16T11:18:20.243Z,99962.84
2023-04-16T11:21:23.629Z,99961.11
2023-04-16T11:24:30.920Z,99960.70
2023-04-16T11:27:43.933Z,99962.48
2023-04-16T11:30:49.246Z,99962.73
2023-04-16T11:33:51.959Z,99966.17
2023-04-16T11:36:54.713Z,99961.93
2023-04-16T11:39:57.414Z,99966.05
2023-04-16T11:43:05.237Z,99966.94
2023-04-16T11:46:24.005Z,99956.69
2023-04-16T11:49:30.321Z,99966.16
2023-04-16T11:52:33.944Z,99963.54
2023-04-16T11:55:45.562Z,99960.27
2023-04-16T11:59:09.227Z,99962.84
2023-04-16T12:02:14.329Z,99964.34
2023-04-16T12:05:39.164Z,99971.58
2023-04-16T12:08:54.904Z,99958.88
2023-04-16T12:12:02.725Z,99967.29
2023-04-16T12:15:09.098Z,99967.39
2023-04-16T12:18:16.365Z,99965.98
2023-04-16T12:21:20.678Z,99961.37
2023-04-16T12:24:32.637Z,99963.75
2023-04-16T12:27:54.300Z,99966.33
2023-04-16T12:30:57.793Z,99955.31
2023-04-16T12:34:03.698Z,99970.34
2023-04-16T12:37:11.050Z,99969.33
2023-04-16T12:40:13.869Z,99950.72
2023-04-16T12:43:17.045Z,99953.77
2023-04-16T12:46:19.874Z,99962.81
2023-04-16T12:49:26.667Z,99960.88
2023-04-16T12:52:37.177Z,99960.74
2023-04-16T12:55:39.868Z,99962.46
2023-04-16T12:58:44.615Z,99958.58
2023-04-16T13:01:48.750Z,99959.72
2023-04-16T13:32:02.427Z,99968.82
2023-04-16T13:32:17.016Z,99966.72
2023-04-16T13:35:19.827Z,99966.76
2023-04-16T13:38:29.015Z,99975.69
2023-04-16T13:46:37.467Z,99973.51
2023-04-16T15:30:33.089Z,100006.84
2023-04-16T15:37:47.741Z,100010.66
2023-04-16T15:41:03.057Z,100007.55
2023-04-16T15:44:22.784Z,100010.64
2023-04-16T15:47:49.859Z,100007.85
2023-04-16T15:51:07.206Z,100013.83
2023-04-16T15:54:19.064Z,100010.16
2023-04-16T15:57:21.737Z,100016.92
2023-04-16T16:00:24.681Z,100020.10
2023-04-16T16:03:27.601Z,100021.50
2023-04-16T16:06:31.604Z,100025.38
2023-04-16T16:09:36.658Z,100024.78
2023-04-16T16:12:40.730Z,100024.13
2023-04-16T16:15:46.839Z,100025.20
2023-04-16T16:18:49.524Z,100027.59
2023-04-16T16:21:52.105Z,100023.83
2023-04-16T16:24:56.489Z,100022.75
2023-04-16T16:27:59.583Z,100022.60
2023-04-16T16:31:03.909Z,100029.72
2023-04-16T16:34:06.575Z,100032.05
2023-04-16T16:37:33.075Z,100037.79
2023-04-16T16:40:38.117Z,100036.45
2023-04-16T16:43:40.947Z,100038.88
2023-04-16T16:46:43.664Z,100037.33
2023-04-16T16:49:46.481Z,100039.92
2023-04-16T16:52:50.241Z,100037.55
2023-04-16T16:55:52.914Z,100041.69
2023-04-16T16:58:56.103Z,100042.24
2023-04-16T17:02:00.897Z,100044.05
2023-04-16T17:09:42.080Z,100045.50
2023-04-16T17:22:15.899Z,100052.52
2023-04-16T19:50:29.124Z,100155.48
2023-04-16T19:53:34.210Z,100158.30
2023-04-16T19:56:46.055Z,100159.17
2023-04-16T20:00:00.475Z,100164.13
2023-04-16T20:03:04.464Z,100164.65
2023-04-16T20:06:08.123Z,100165.92
2023-04-16T20:09:12.542Z,100163.95
2023-04-16T20:12:21.273Z,100163.49
2023-04-16T20:15:24.506Z,100163.73
2023-04-16T20:18:28.953Z,100167.46
2023-04-16T20:21:32.132Z,100169.01
2023-04-16T20:24:34.854Z,100166.55
2023-04-16T20:27:39.193Z,100166.72
2023-04-16T20:30:42.154Z,100163.92
2023-04-16T20:33:44.910Z,100164.89
2023-04-16T20:36:50.140Z,100162.91
2023-04-16T20:39:54.299Z,100164.80
2023-04-16T20:42:59.957Z,100167.02
2023-04-16T20:46:03.191Z,100169.88
2023-04-16T20:49:07.721Z,100170.34
2023-04-16T20:52:10.520Z,100172.02
2023-04-16T20:55:13.256Z,100174.91
2023-04-16T20:58:17.116Z,100176.75
2023-04-16T21:01:20.760Z,100173.42
2023-04-16T21:04:23.737Z,100177.64
2023-04-16T21:07:27.533Z,100176.15
2023-04-16T21:10:31.052Z,100175.72
2023-04-16T21:13:33.795Z,100176.09
2023-04-16T21:16:36.557Z,100177.97
2023-04-16T21:19:43.765Z,100178.77
2023-04-16T21:22:46.522Z,100179.56
2023-04-16T21:25:49.190Z,100177.91
2023-04-16T21:28:54.565Z,100177.54
2023-04-16T21:31:57.990Z,100176.23
2023-04-16T21:35:00.973Z,100173.63
2023-04-16T21:38:03.649Z,100172.87
2023-04-16T21:41:08.887Z,100174.63
2023-04-16T21:44:11.633Z,100177.67
2023-04-16T21:47:17.507Z,100173.48
2023-04-16T21:50:23.945Z,100173.95
2023-04-16T21:53:34.128Z,100175.17
2023-04-16T21:56:37.463Z,100178.59
2023-04-16T21:59:41.006Z,100176.50
2023-04-16T22:02:46.231Z,100179.92
2023-04-16T22:05:52.690Z,100180.07
2023-04-16T22:08:59.008Z,100172.10
2023-04-16T22:12:02.160Z,100178.12
2023-04-16T22:15:07.476Z,100180.60
2023-04-16T22:18:10.759Z,100178.27
2023-04-16T22:21:14.087Z,100177.84
2023-04-16T22:24:20.961Z,100181.90
2023-04-16T22:27:29.685Z,100185.66
2023-04-16T22:30:35.132Z,100179.89
2023-04-16T22:33:39.043Z,100181.08
2023-04-16T22:36:48.442Z,100181.27
2023-04-16T22:39:51.854Z,100183.90
2023-04-16T22:42:55.100Z,100184.44
2023-04-16T22:46:08.586Z,100187.48
2023-04-16T22:54:42.193Z,100190.00
